createdAt,value
2023-03-21T00:02:00.209Z,6.10
2023-03-21T00:04:28.403Z,6.07
2023-03-21T00:06:57.593Z,7.20
2023-03-21T00:09:24.250Z,7.85
2023-03-21T00:11:50.664Z,10.68
2023-03-21T00:14:19.962Z,7.57
2023-03-21T00:16:50.556Z,12.93
2023-03-21T00:19:19.180Z,10.88
2023-03-21T00:22:03.560Z,10.60
2023-03-21T00:24:32.615Z,10.43
2023-03-21T00:27:10.705Z,9.13
2023-03-21T00:34:54.744Z,7.85
2023-03-21T00:37:28.372Z,4.93
2023-03-21T00:39:54.857Z,9.70
2023-03-21T00:42:21.268Z,11.65
2023-03-21T00:44:47.683Z,8.30
2023-03-21T00:47:14.232Z,6.45
2023-03-21T00:49:40.718Z,8.15
2023-03-21T00:52:18.322Z,6.97
2023-03-21T00:54:46.660Z,9.35
2023-03-21T00:57:13.022Z,6.20
2023-03-21T00:59:39.389Z,9.02
2023-03-21T01:02:07.438Z,9.07
2023-03-21T01:04:34.424Z,6.60
2023-03-21T01:07:00.839Z,8.63
2023-03-21T01:09:27.195Z,7.03
2023-03-21T01:11:53.718Z,7.38
2023-03-21T01:14:23.573Z,8.50
2023-03-21T01:16:53.568Z,11.50
2023-03-21T01:19:27.531Z,8.75
2023-03-21T01:21:56.123Z,8.13
2023-03-21T01:24:22.956Z,9.50
2023-03-21T01:26:49.381Z,10.95
2023-03-21T01:29:15.858Z,10.90
2023-03-21T01:31:42.266Z,9.13
2023-03-21T01:34:08.695Z,7.57
2023-03-21T01:36:35.055Z,12.85
2023-03-21T01:39:01.404Z,7.82
2023-03-21T01:41:42.077Z,10.93
2023-03-21T01:44:14.283Z,11.13
2023-03-21T01:46:53.991Z,9.55
2023-03-21T01:49:26.897Z,10.05
2023-03-21T01:51:58.660Z,12.90
2023-03-21T01:54:31.678Z,9.98
2023-03-21T01:56:59.002Z,9.95
2023-03-21T01:59:28.651Z,7.65
2023-03-21T02:01:56.801Z,10.13
2023-03-21T02:04:28.191Z,9.63
2023-03-21T02:07:00.607Z,10.70
2023-03-21T02:09:29.687Z,11.48
2023-03-21T02:11:56.576Z,8.90
2023-03-21T02:14:29.201Z,10.60
2023-03-21T02:17:10.337Z,9.02
2023-03-21T02:19:52.655Z,9.18
2023-03-21T02:22:25.933Z,7.07
2023-03-21T02:24:59.662Z,8.52
2023-03-21T02:27:28.742Z,7.35
2023-03-21T02:30:30.465Z,13.38
2023-03-21T02:33:16.039Z,8.95
2023-03-21T02:36:02.992Z,11.90
2023-03-21T02:38:47.465Z,12.32
2023-03-21T02:41:40.063Z,10.55
2023-03-21T02:44:06.901Z,9.02
2023-03-21T02:47:06.819Z,10.95
2023-03-21T02:49:45.254Z,9.65
2023-03-21T02:52:22.931Z,13.93
2023-03-21T02:54:56.022Z,9.10
2023-03-21T02:57:24.061Z,8.73
2023-03-21T03:00:00.133Z,12.50
2023-03-21T03:02:30.830Z,17.55
2023-03-21T03:04:58.758Z,13.15
2023-03-21T03:07:54.502Z,10.77
2023-03-21T03:10:26.633Z,8.98
2023-03-21T03:12:59.014Z,10.57
2023-03-21T03:15:45.600Z,11.90
2023-03-21T03:18:26.790Z,11.45
2023-03-21T03:20:53.082Z,13.07
2023-03-21T03:23:34.339Z,8.98
2023-03-21T03:26:08.940Z,12.63
2023-03-21T03:28:37.974Z,14.23
2023-03-21T03:31:09.797Z,11.30
2023-03-21T03:33:38.894Z,10.82
2023-03-21T03:36:07.110Z,10.25
2023-03-21T03:38:36.268Z,9.57
2023-03-21T03:41:08.324Z,9.20
2023-03-21T03:43:39.540Z,12.60
2023-03-21T03:46:12.195Z,10.88
2023-03-21T03:48:46.701Z,11.23
2023-03-21T03:51:18.574Z,10.40
2023-03-21T03:53:51.089Z,10.73
2023-03-21T03:56:17.498Z,12.80
2023-03-21T03:58:46.019Z,12.02
2023-03-21T04:01:12.656Z,13.25
2023-03-21T04:03:48.886Z,13.77
2023-03-21T04:06:16.704Z,12.93
2023-03-21T04:08:43.128Z,11.93
2023-03-21T04:11:11.033Z,15.30
2023-03-21T04:13:37.360Z,10.90
2023-03-21T04:16:04.793Z,14.95
2023-03-21T04:18:32.179Z,13.30
2023-03-21T04:20:58.542Z,13.50
2023-03-21T04:23:25.014Z,11.50
2023-03-21T04:25:56.842Z,10.95
2023-03-21T04:28:23.596Z,13.10
2023-03-21T04:31:01.485Z,15.30
2023-03-21T04:33:31.477Z,12.75
2023-03-21T04:35:59.238Z,12.13
2023-03-21T04:38:30.580Z,13.75
2023-03-21T04:40:57.594Z,13.15
2023-03-21T04:43:24.060Z,15.75
2023-03-21T04:45:51.067Z,12.00
2023-03-21T04:48:19.530Z,14.40
2023-03-21T04:50:46.198Z,13.32
2023-03-21T04:53:12.758Z,12.40
2023-03-21T04:55:39.220Z,10.80
2023-03-21T04:58:05.700Z,11.43
2023-03-21T05:00:32.834Z,14.93
2023-03-21T05:03:00.104Z,14.07
2023-03-21T05:05:26.538Z,11.48
2023-03-21T05:07:52.890Z,11.75
2023-03-21T05:10:19.271Z,12.45
2023-03-21T05:12:45.826Z,19.85
2023-03-21T05:15:12.136Z,11.43
2023-03-21T05:17:38.496Z,12.38
2023-03-21T05:20:06.169Z,12.55
2023-03-21T05:22:40.304Z,13.40
2023-03-21T05:25:08.499Z,16.67
2023-03-21T05:27:35.036Z,17.98
2023-03-21T05:30:08.940Z,14.52
2023-03-21T05:32:35.556Z,15.55
2023-03-21T05:35:02.036Z,16.40
2023-03-21T05:37:28.718Z,14.48
2023-03-21T05:39:55.350Z,13.63
2023-03-21T05:42:21.819Z,14.27
2023-03-21T05:44:48.268Z,18.95
2023-03-21T05:47:15.808Z,16.38
2023-03-21T05:49:42.522Z,15.90
2023-03-21T05:52:10.332Z,11.57
2023-03-21T05:54:36.853Z,16.40
2023-03-21T05:57:03.839Z,20.20
2023-03-21T05:59:30.307Z,12.15
2023-03-21T06:01:56.701Z,12.60
2023-03-21T06:04:23.020Z,11.88
2023-03-21T06:06:50.912Z,10.27
2023-03-21T06:09:17.441Z,20.92
2023-03-21T06:11:46.096Z,16.40
2023-03-21T06:14:12.466Z,12.63
2023-03-21T06:16:38.828Z,16.08
2023-03-21T06:19:05.427Z,17.17
2023-03-21T06:21:31.835Z,12.85
2023-03-21T06:23:58.263Z,16.10
2023-03-21T06:26:24.608Z,11.23
2023-03-21T06:28:51.380Z,12.82
2023-03-21T06:31:18.331Z,11.52
2023-03-21T06:33:44.688Z,12.68
2023-03-21T06:36:11.282Z,19.02
2023-03-21T06:38:38.153Z,14.73
2023-03-21T06:41:05.347Z,12.52
2023-03-21T06:43:32.077Z,17.13
2023-03-21T06:45:59.454Z,14.57
2023-03-21T06:48:26.634Z,15.82
2023-03-21T06:50:53.394Z,17.02
2023-03-21T06:53:30.129Z,14.18
2023-03-21T06:55:56.914Z,12.73
2023-03-21T06:58:23.473Z,11.60
2023-03-21T07:00:49.885Z,16.38
2023-03-21T07:03:16.870Z,11.05
2023-03-21T07:05:43.353Z,10.15
2023-03-21T07:08:11.394Z,9.95
2023-03-21T07:10:42.263Z,10.77
2023-03-21T07:13:09.449Z,12.63
2023-03-21T07:15:38.302Z,15.13
2023-03-21T07:18:05.915Z,12.43
2023-03-21T07:20:32.583Z,9.40
2023-03-21T07:22:59.149Z,12.20
2023-03-21T07:25:25.522Z,8.95
2023-03-21T07:27:52.330Z,10.30
2023-03-21T07:30:18.803Z,10.73
2023-03-21T07:32:45.615Z,11.90
2023-03-21T07:35:12.945Z,14.18
2023-03-21T07:37:40.275Z,15.93
2023-03-21T07:40:10.297Z,11.38
2023-03-21T07:42:37.395Z,13.15
2023-03-21T07:45:05.043Z,11.65
2023-03-21T07:47:32.092Z,9.68
2023-03-21T07:49:58.689Z,7.45
2023-03-21T07:52:25.351Z,9.60
2023-03-21T07:54:51.685Z,14.10
2023-03-21T07:57:18.176Z,10.93
2023-03-21T07:59:44.665Z,12.75
2023-03-21T08:02:14.368Z,11.35
2023-03-21T08:04:40.740Z,8.95
2023-03-21T08:07:07.199Z,11.30
2023-03-21T08:09:33.559Z,7.82
2023-03-21T08:12:00.239Z,7.95
2023-03-21T08:14:26.779Z,12.05
2023-03-21T08:16:53.389Z,13.48
2023-03-21T08:19:21.759Z,7.57
2023-03-21T08:21:49.395Z,7.28
2023-03-21T08:24:16.238Z,9.30
2023-03-21T08:26:44.305Z,7.50
2023-03-21T08:29:10.885Z,10.45
2023-03-21T08:31:37.624Z,7.97
2023-03-21T08:34:04.119Z,7.45
2023-03-21T08:36:31.554Z,13.40
2023-03-21T08:39:05.130Z,9.13
2023-03-21T08:41:35.563Z,10.90
2023-03-21T08:44:02.132Z,11.38
2023-03-21T08:46:28.575Z,7.68
2023-03-21T08:48:55.053Z,6.65
2023-03-21T08:51:21.637Z,8.18
2023-03-21T08:53:49.294Z,8.75
2023-03-21T08:56:15.714Z,10.65
2023-03-21T08:58:42.037Z,13.65
2023-03-21T09:01:11.200Z,11.10
2023-03-21T09:03:38.363Z,12.55
2023-03-21T09:06:04.845Z,8.23
2023-03-21T09:08:31.147Z,9.75
2023-03-21T09:10:57.608Z,11.80
2023-03-21T09:13:24.439Z,7.00
2023-03-21T09:15:50.854Z,15.15
2023-03-21T09:18:18.238Z,9.35
2023-03-21T09:20:46.717Z,9.38
2023-03-21T09:23:13.914Z,14.18
2023-03-21T09:25:41.000Z,13.80
2023-03-21T09:28:07.673Z,14.63
2023-03-21T09:30:34.839Z,11.00
2023-03-21T09:33:02.033Z,9.82
2023-03-21T09:35:28.562Z,13.23
2023-03-21T09:37:57.122Z,12.88
2023-03-21T09:40:31.308Z,9.27
2023-03-21T09:43:06.973Z,14.15
2023-03-21T09:45:40.940Z,14.55
2023-03-21T09:48:15.284Z,14.13
2023-03-21T09:50:42.304Z,11.13
2023-03-21T09:53:21.054Z,14.77
2023-03-21T09:55:47.460Z,14.25
2023-03-21T09:58:14.451Z,20.20
2023-03-21T10:00:45.098Z,11.48
2023-03-21T10:03:18.764Z,11.18
2023-03-21T10:05:48.968Z,13.00
2023-03-21T10:08:16.037Z,13.07
2023-03-21T10:10:47.374Z,10.50
2023-03-21T10:13:15.719Z,16.33
2023-03-21T10:15:42.058Z,17.33
2023-03-21T10:18:13.297Z,15.05
2023-03-21T10:20:41.722Z,13.05
2023-03-21T10:23:12.769Z,12.45
2023-03-21T10:26:02.261Z,13.52
2023-03-21T10:28:36.687Z,16.33
2023-03-21T10:31:11.272Z,13.00
2023-03-21T10:33:39.280Z,11.52
2023-03-21T10:36:07.356Z,14.77
2023-03-21T10:38:34.662Z,15.25
2023-03-21T10:41:00.989Z,20.10
2023-03-21T10:43:27.273Z,16.30
2023-03-21T10:45:57.075Z,14.60
2023-03-21T10:48:24.143Z,14.80
2023-03-21T10:50:53.203Z,13.23
2023-03-21T10:53:27.426Z,13.00
2023-03-21T10:55:56.047Z,15.40
2023-03-21T10:58:27.311Z,12.05
2023-03-21T11:00:58.336Z,10.18
2023-03-21T11:03:31.461Z,12.18
2023-03-21T11:06:16.811Z,15.68
2023-03-21T11:08:47.699Z,16.10
2023-03-21T11:11:20.487Z,12.93
2023-03-21T11:13:55.106Z,16.77
2023-03-21T11:16:27.470Z,15.88
2023-03-21T11:18:57.650Z,13.45
2023-03-21T11:21:29.684Z,13.50
2023-03-21T11:23:57.271Z,17.15
2023-03-21T11:26:29.799Z,17.83
2023-03-21T11:28:56.260Z,13.82
2023-03-21T11:31:24.988Z,15.50
2023-03-21T11:33:56.985Z,15.23
2023-03-21T11:36:23.440Z,13.75
2023-03-21T11:38:54.113Z,9.60
2023-03-21T11:41:40.051Z,12.13
2023-03-21T11:44:06.417Z,11.23
2023-03-21T11:46:40.002Z,10.98
2023-03-21T11:49:09.496Z,11.48
2023-03-21T11:51:44.565Z,8.15
2023-03-21T11:54:11.219Z,7.20
2023-03-21T11:56:43.683Z,12.13
2023-03-21T11:59:16.368Z,10.38
2023-03-21T12:01:42.661Z,9.27
2023-03-21T12:04:15.163Z,8.57
2023-03-21T12:06:44.500Z,7.38
2023-03-21T12:09:10.957Z,10.70
2023-03-21T12:11:42.265Z,11.73
2023-03-21T12:14:23.678Z,8.85
2023-03-21T12:16:56.348Z,10.82
2023-03-21T12:19:41.795Z,10.35
2023-03-21T12:22:12.271Z,8.88
2023-03-21T12:24:47.670Z,8.50
2023-03-21T12:27:29.199Z,9.32
2023-03-21T12:30:04.381Z,5.60
2023-03-21T12:32:41.896Z,5.90
2023-03-21T12:35:11.062Z,7.00
2023-03-21T12:37:43.278Z,8.77
2023-03-21T12:40:12.776Z,10.95
2023-03-21T12:42:45.219Z,6.25
2023-03-21T12:45:16.035Z,8.57
2023-03-21T12:47:43.453Z,10.98
2023-03-21T12:50:20.078Z,7.55
2023-03-21T12:52:49.877Z,9.10
2023-03-21T12:55:21.808Z,6.65
2023-03-21T12:58:03.295Z,10.70
2023-03-21T13:00:35.723Z,8.68
2023-03-21T13:03:04.008Z,5.57
2023-03-21T13:05:31.816Z,5.25
2023-03-21T13:08:00.728Z,7.38
2023-03-21T13:10:27.397Z,7.35
2023-03-21T13:13:07.701Z,10.05
2023-03-21T13:15:52.698Z,9.88
2023-03-21T13:18:22.265Z,10.82
2023-03-21T13:20:58.660Z,10.80
2023-03-21T13:23:33.007Z,4.60
2023-03-21T13:25:59.482Z,7.88
2023-03-21T13:28:27.224Z,10.63
2023-03-21T13:30:54.037Z,8.82
2023-03-21T13:33:29.145Z,9.32
2023-03-21T13:36:00.965Z,9.23
2023-03-21T13:38:28.455Z,13.27
2023-03-21T13:41:00.695Z,10.20
2023-03-21T13:43:44.778Z,6.57
2023-03-21T13:46:15.591Z,7.80
2023-03-21T13:49:00.192Z,7.03
2023-03-21T13:51:42.860Z,7.65
2023-03-21T13:54:15.513Z,9.88
2023-03-21T13:56:45.224Z,7.40
2023-03-21T13:59:13.066Z,12.48
2023-03-21T14:01:41.636Z,8.20
2023-03-21T14:04:24.155Z,11.70
2023-03-21T14:07:14.022Z,7.97
2023-03-21T14:09:41.984Z,6.10
2023-03-21T14:12:11.549Z,7.53
2023-03-21T14:14:40.231Z,6.97
2023-03-21T14:17:13.628Z,5.65
2023-03-21T14:19:40.230Z,6.28
2023-03-21T14:22:11.589Z,7.38
2023-03-21T14:24:38.405Z,6.28
2023-03-21T14:27:05.625Z,5.85
2023-03-21T14:29:35.309Z,9.35
2023-03-21T14:32:02.277Z,5.68
2023-03-21T14:34:29.527Z,5.75
2023-03-21T14:36:58.599Z,6.28
2023-03-21T14:39:29.833Z,5.85
2023-03-21T14:42:06.650Z,8.27
2023-03-21T14:44:44.103Z,8.60
2023-03-21T14:47:18.219Z,4.85
2023-03-21T14:49:44.824Z,7.80
2023-03-21T14:52:12.334Z,2.67
2023-03-21T14:54:40.581Z,3.83
2023-03-21T14:57:20.720Z,4.72
2023-03-21T14:59:49.328Z,9.38
2023-03-21T15:02:48.185Z,5.53
2023-03-21T15:05:27.047Z,4.95
2023-03-21T15:07:55.238Z,7.70
2023-03-21T15:10:21.739Z,3.92
2023-03-21T15:12:55.898Z,7.38
2023-03-21T15:15:25.988Z,5.07
2023-03-21T15:17:54.670Z,10.25
2023-03-21T15:20:22.570Z,5.18
2023-03-21T15:22:51.535Z,4.05
2023-03-21T15:25:19.853Z,2.50
2023-03-21T15:27:46.313Z,5.32
2023-03-21T15:30:20.410Z,2.65
2023-03-21T15:32:47.482Z,5.38
2023-03-21T15:35:16.538Z,7.65
2023-03-21T15:37:42.892Z,2.97
2023-03-21T15:40:16.107Z,3.50
2023-03-21T15:42:42.539Z,2.20
2023-03-21T15:45:18.680Z,2.92
2023-03-21T15:47:53.255Z,2.75
2023-03-21T15:50:28.001Z,4.97
2023-03-21T15:52:54.766Z,6.75
2023-03-21T15:55:41.457Z,4.05
2023-03-21T15:58:16.964Z,3.88
2023-03-21T16:00:48.912Z,6.22
2023-03-21T16:03:24.595Z,9.63
2023-03-21T16:08:17.272Z,4.80
2023-03-21T16:10:43.673Z,4.63
2023-03-21T16:13:12.072Z,6.38
2023-03-21T16:15:38.397Z,4.53
2023-03-21T16:18:06.163Z,5.00
2023-03-21T16:20:35.166Z,3.00
2023-03-21T16:23:01.590Z,5.32
2023-03-21T16:25:29.240Z,7.00
2023-03-21T16:27:55.807Z,9.32
2023-03-21T16:30:22.808Z,6.93
2023-03-21T16:32:50.055Z,7.68
2023-03-21T16:35:16.742Z,6.32
2023-03-21T16:37:43.554Z,8.18
2023-03-21T16:40:26.007Z,7.05
2023-03-21T16:42:52.508Z,9.55
2023-03-21T16:45:18.869Z,8.40
2023-03-21T16:47:45.484Z,7.45
2023-03-21T16:50:19.607Z,6.88
2023-03-21T16:52:45.994Z,6.38
2023-03-21T16:55:12.306Z,8.50
2023-03-21T16:57:39.313Z,7.63
2023-03-21T17:00:07.406Z,7.47
2023-03-21T17:02:33.938Z,5.03
2023-03-21T17:05:03.689Z,7.18
2023-03-21T17:07:30.229Z,3.08
2023-03-21T17:09:56.743Z,6.55
2023-03-21T17:12:23.278Z,9.88
2023-03-21T17:14:49.748Z,2.92
2023-03-21T17:17:16.779Z,3.72
2023-03-21T17:19:43.189Z,4.38
2023-03-21T17:22:11.894Z,8.88
2023-03-21T17:24:39.677Z,8.63
2023-03-21T17:27:08.216Z,3.55
2023-03-21T17:29:34.637Z,5.53
2023-03-21T17:32:01.115Z,5.80
2023-03-21T17:34:27.499Z,8.20
2023-03-21T17:36:54.057Z,4.20
2023-03-21T17:39:24.204Z,6.72
2023-03-21T17:41:51.892Z,7.88
2023-03-21T17:44:18.480Z,8.05
2023-03-21T17:46:45.374Z,5.28
2023-03-21T17:49:12.969Z,7.00
2023-03-21T17:51:39.567Z,13.35
2023-03-21T17:54:06.545Z,12.15
2023-03-21T17:56:34.020Z,10.57
2023-03-21T17:59:01.814Z,12.98
2023-03-21T18:01:28.464Z,6.60
2023-03-21T18:03:55.043Z,14.85
2023-03-21T18:06:22.754Z,8.25
2023-03-21T18:08:49.618Z,13.25
2023-03-21T18:11:16.881Z,8.38
2023-03-21T18:13:43.717Z,10.45
2023-03-21T18:16:12.158Z,8.07
2023-03-21T18:18:39.107Z,8.73
2023-03-21T18:21:05.906Z,12.82
2023-03-21T18:23:32.437Z,9.40
2023-03-21T18:25:59.434Z,10.50
2023-03-21T18:28:26.035Z,11.05
2023-03-21T18:31:12.587Z,6.32
2023-03-21T18:33:44.992Z,8.18
2023-03-21T18:36:14.042Z,8.63
2023-03-21T18:38:41.041Z,10.52
2023-03-21T18:41:08.379Z,11.43
2023-03-21T18:46:21.949Z,12.77
2023-03-21T18:48:49.208Z,10.85
2023-03-21T18:51:17.614Z,8.68
2023-03-21T18:53:44.736Z,6.57
2023-03-21T18:56:11.706Z,10.43
2023-03-21T18:58:40.769Z,8.00
2023-03-21T19:01:08.015Z,7.68
2023-03-21T19:03:37.246Z,11.45
2023-03-21T19:06:05.446Z,11.27
2023-03-21T19:08:32.329Z,12.23
2023-03-21T19:11:03.299Z,11.63
2023-03-21T19:13:32.532Z,8.40
2023-03-21T19:15:59.079Z,18.00
2023-03-21T19:18:46.209Z,8.52
2023-03-21T19:21:11.928Z,13.15
2023-03-21T19:24:11.757Z,10.77
2023-03-21T19:26:25.473Z,10.90
2023-03-21T19:28:52.033Z,16.00
2023-03-21T19:31:19.069Z,8.73
2023-03-21T19:33:46.094Z,11.15
2023-03-21T19:36:21.635Z,10.05
2023-03-21T19:38:48.744Z,11.07
2023-03-21T19:41:15.152Z,8.30
2023-03-21T19:43:52.801Z,13.63
2023-03-21T19:46:22.639Z,10.52
2023-03-21T19:48:50.105Z,14.73
2023-03-21T19:51:32.938Z,14.23
2023-03-21T19:54:00.205Z,11.85
2023-03-21T19:56:27.881Z,10.18
2023-03-21T19:58:57.489Z,7.57
2023-03-21T20:01:24.766Z,11.88
2023-03-21T20:03:51.606Z,11.07
2023-03-21T20:06:18.552Z,9.95
2023-03-21T20:11:31.779Z,13.35
2023-03-21T20:13:59.780Z,11.00
2023-03-21T20:16:33.718Z,7.85
2023-03-21T20:19:00.960Z,11.60
2023-03-21T20:21:34.900Z,11.05
2023-03-21T20:24:06.965Z,6.68
2023-03-21T20:26:34.174Z,10.60
2023-03-21T20:29:37.071Z,10.50
2023-03-21T20:31:47.511Z,7.72
2023-03-21T20:34:13.916Z,8.73
2023-03-21T20:36:42.778Z,7.40
2023-03-21T20:39:09.582Z,4.95
2023-03-21T20:41:35.905Z,8.07
2023-03-21T20:46:49.015Z,9.05
2023-03-21T20:49:15.627Z,10.05
2023-03-21T20:54:29.794Z,8.85
2023-03-21T20:56:56.751Z,8.18
2023-03-21T20:59:27.005Z,7.10
2023-03-21T21:01:54.871Z,7.40
2023-03-21T21:04:22.403Z,11.35
2023-03-21T21:06:49.577Z,7.38
2023-03-21T21:09:16.748Z,10.13
2023-03-21T21:12:06.184Z,6.57
2023-03-21T21:14:29.588Z,9.40
2023-03-21T21:16:55.924Z,6.00
2023-03-21T21:19:22.246Z,7.22
2023-03-21T21:21:49.777Z,7.43
2023-03-21T21:24:16.077Z,10.40
2023-03-21T21:26:46.209Z,10.73
2023-03-21T21:29:17.025Z,7.70
2023-03-21T21:31:44.369Z,4.72
2023-03-21T21:34:10.949Z,6.15
2023-03-21T21:36:37.288Z,12.38
2023-03-21T21:39:04.473Z,6.95
2023-03-21T21:41:30.854Z,5.78
2023-03-21T21:43:57.202Z,6.82
2023-03-21T21:46:23.576Z,9.80
2023-03-21T21:48:50.141Z,10.70
2023-03-21T21:51:18.098Z,11.48
2023-03-21T21:53:46.266Z,11.15
2023-03-21T21:56:14.223Z,10.30
2023-03-21T21:58:46.625Z,9.88
2023-03-21T22:01:13.134Z,7.35
2023-03-21T22:03:45.954Z,7.30
2023-03-21T22:06:12.289Z,7.95
2023-03-21T22:08:39.044Z,7.22
2023-03-21T22:11:06.207Z,11.57
2023-03-21T22:13:32.609Z,8.90
2023-03-21T22:15:59.006Z,7.60
2023-03-21T22:18:25.467Z,10.25
2023-03-21T22:20:52.249Z,6.07
2023-03-21T22:23:19.475Z,11.85
2023-03-21T22:25:49.633Z,8.82
2023-03-21T22:28:17.807Z,8.70
2023-03-21T22:30:44.218Z,10.35
2023-03-21T22:33:10.712Z,12.30
2023-03-21T22:35:37.325Z,15.43
2023-03-21T22:38:03.776Z,12.93
2023-03-21T22:40:30.321Z,8.20
2023-03-21T22:42:56.636Z,16.35
2023-03-21T22:45:22.992Z,8.38
2023-03-21T22:47:49.462Z,6.78
2023-03-21T22:50:16.095Z,11.30
2023-03-21T22:52:42.499Z,9.93
2023-03-21T22:55:10.024Z,10.07
2023-03-21T22:57:36.413Z,9.77
2023-03-21T23:00:04.833Z,5.55
2023-03-21T23:02:31.353Z,10.32
2023-03-21T23:04:57.703Z,13.02
2023-03-21T23:07:24.026Z,8.65
2023-03-21T23:09:50.483Z,8.90
2023-03-21T23:12:16.901Z,6.30
2023-03-21T23:14:43.281Z,14.00
2023-03-21T23:17:10.137Z,10.00
2023-03-21T23:19:36.598Z,9.32
2023-03-21T23:22:03.039Z,10.98
2023-03-21T23:24:29.337Z,11.27
2023-03-21T23:26:55.832Z,6.00
2023-03-21T23:29:22.225Z,10.68
2023-03-21T23:31:48.660Z,15.02
2023-03-21T23:34:15.392Z,13.60
2023-03-21T23:36:41.821Z,8.27
2023-03-21T23:39:08.464Z,9.13
2023-03-21T23:41:34.809Z,9.60
2023-03-21T23:44:01.250Z,10.50
2023-03-21T23:46:27.718Z,11.13
2023-03-21T23:48:54.399Z,6.93
2023-03-21T23:51:20.934Z,11.45
2023-03-21T23:53:47.827Z,13.55
2023-03-21T23:56:16.481Z,12.68
2023-03-21T23:58:42.906Z,13.10
